JZA13 CYUL-CYOW
Flight info
| Callsign | JZA13 |
|---|---|
| Flight time | 0h 20m |
| Altitude | 16000 |
| Route | KESKA DCT ALSET RIVER4 |
| Aircraft | CRJ9/M-SDFGIRWYZ/SB1 |
Departure
| Time | 2026-04-30 20:21 |
|---|---|
| Airport | Montreal / Pierre Elliott Trudeau International Airport (CYUL) |
Arrival
| Time | 2026-04-30 20:41 |
|---|---|
| Airport | Ottawa Macdonald-Cartier International Airport (CYOW) |
| Time | Latitude | Longitude | Altitude | Speed | Heading |
|---|---|---|---|---|---|
| 2026-04-30 20:20 | 45.45346 | -73.94111 | 9908 ft | 283 kts | 316° |
| 2026-04-30 20:21 | 45.46857 | -73.95947 | 10640 ft | 290 kts | 316° |
| 2026-04-30 20:21 | 45.48413 | -73.97900 | 11144 ft | 305 kts | 315° |
| 2026-04-30 20:21 | 45.50030 | -73.99972 | 11669 ft | 319 kts | 315° |
| 2026-04-30 20:21 | 45.51716 | -74.02129 | 12221 ft | 332 kts | 315° |
| 2026-04-30 20:22 | 45.53471 | -74.04372 | 12766 ft | 344 kts | 315° |
| 2026-04-30 20:22 | 45.55277 | -74.06689 | 13330 ft | 356 kts | 315° |
| 2026-04-30 20:22 | 45.57145 | -74.09087 | 13868 ft | 366 kts | 315° |
| 2026-04-30 20:22 | 45.59068 | -74.11543 | 14375 ft | 375 kts | 315° |
| 2026-04-30 20:23 | 45.60758 | -74.14393 | 14854 ft | 378 kts | 295° |
| 2026-04-30 20:23 | 45.61510 | -74.17915 | 15362 ft | 378 kts | 274° |
| 2026-04-30 20:23 | 45.61599 | -74.21697 | 15749 ft | 385 kts | 265° |
| 2026-04-30 20:23 | 45.61473 | -74.25542 | 15905 ft | 392 kts | 264° |
| 2026-04-30 20:24 | 45.61319 | -74.29478 | 15972 ft | 400 kts | 264° |
| 2026-04-30 20:24 | 45.61195 | -74.33431 | 15984 ft | 397 kts | 265° |
| 2026-04-30 20:24 | 45.61145 | -74.37345 | 15979 ft | 390 kts | 266° |
| 2026-04-30 20:24 | 45.61101 | -74.41195 | 15985 ft | 387 kts | 266° |
| 2026-04-30 20:25 | 45.61000 | -74.48906 | 15993 ft | 389 kts | 266° |
| 2026-04-30 20:25 | 45.60789 | -74.52749 | 15988 ft | 389 kts | 259° |
| 2026-04-30 20:26 | 45.59753 | -74.60357 | 15982 ft | 392 kts | 256° |
| 2026-04-30 20:26 | 45.58654 | -74.68022 | 15983 ft | 395 kts | 257° |
| 2026-04-30 20:26 | 45.58151 | -74.71854 | 15647 ft | 398 kts | 257° |
| 2026-04-30 20:27 | 45.57141 | -74.79530 | 14170 ft | 382 kts | 258° |
| 2026-04-30 20:27 | 45.56186 | -74.86794 | 12711 ft | 363 kts | 258° |
| 2026-04-30 20:28 | 45.54687 | -74.93321 | 11771 ft | 334 kts | 240° |
| 2026-04-30 20:28 | 45.52248 | -74.98687 | 11016 ft | 313 kts | 236° |
| 2026-04-30 20:29 | 45.49897 | -75.03664 | 10318 ft | 297 kts | 238° |
| 2026-04-30 20:30 | 45.46668 | -75.10862 | 9320 ft | 279 kts | 239° |
| 2026-04-30 20:30 | 45.43691 | -75.17486 | 8383 ft | 264 kts | 239° |
| 2026-04-30 20:31 | 45.40795 | -75.23938 | 7512 ft | 252 kts | 240° |
| 2026-04-30 20:32 | 45.38067 | -75.30000 | 7082 ft | 226 kts | 240° |
| 2026-04-30 20:32 | 45.36432 | -75.33627 | 7056 ft | 223 kts | 240° |
| 2026-04-30 20:33 | 45.35575 | -75.35524 | 6788 ft | 231 kts | 240° |
| 2026-04-30 20:33 | 45.33444 | -75.38977 | 5915 ft | 247 kts | 204° |
| 2026-04-30 20:33 | 45.31750 | -75.39480 | 5517 ft | 252 kts | 187° |
| 2026-04-30 20:34 | 45.28201 | -75.39097 | 4666 ft | 259 kts | 172° |
| 2026-04-30 20:34 | 45.24959 | -75.37112 | 4128 ft | 246 kts | 175° |
| 2026-04-30 20:35 | 45.23378 | -75.37495 | 3901 ft | 231 kts | 214° |
| 2026-04-30 20:35 | 45.22381 | -75.39129 | 3709 ft | 220 kts | 253° |
| 2026-04-30 20:35 | 45.21483 | -75.43075 | 3522 ft | 196 kts | 250° |
| 2026-04-30 20:36 | 45.21274 | -75.44865 | 3298 ft | 179 kts | 287° |
| 2026-04-30 20:36 | 45.21770 | -75.46411 | 3157 ft | 168 kts | 295° |
| 2026-04-30 20:36 | 45.22787 | -75.49545 | 3058 ft | 178 kts | 301° |
| 2026-04-30 20:37 | 45.23488 | -75.50998 | 3036 ft | 178 kts | 308° |
| 2026-04-30 20:37 | 45.24248 | -75.52357 | 2873 ft | 163 kts | 306° |
| 2026-04-30 20:37 | 45.24838 | -75.53606 | 2777 ft | 149 kts | 306° |
| 2026-04-30 20:37 | 45.25470 | -75.54785 | 2239 ft | 147 kts | 308° |
| 2026-04-30 20:38 | 45.26046 | -75.55808 | 2126 ft | 116 kts | 309° |
| 2026-04-30 20:38 | 45.26554 | -75.56728 | 2039 ft | 123 kts | 307° |
| 2026-04-30 20:38 | 45.27065 | -75.57693 | 1816 ft | 121 kts | 307° |
| 2026-04-30 20:39 | 45.28030 | -75.59555 | 1467 ft | 113 kts | 306° |
| 2026-04-30 20:39 | 45.28495 | -75.60465 | 1353 ft | 118 kts | 306° |
| 2026-04-30 20:39 | 45.29004 | -75.61429 | 1086 ft | 126 kts | 306° |
| 2026-04-30 20:40 | 45.30061 | -75.63447 | 664 ft | 126 kts | 304° |
| 2026-04-30 20:40 | 45.30585 | -75.64495 | 658 ft | 132 kts | 303° |
| 2026-04-30 20:40 | 45.31113 | -75.65524 | 405 ft | 129 kts | 302° |
| 2026-04-30 20:41 | 45.31842 | -75.66963 | 372 ft | 40 kts | 307° |
| 2026-04-30 20:41 | 45.31970 | -75.67209 | 369 ft | 23 kts | 307° |
| 2026-04-30 20:41 | 45.32036 | -75.67304 | 368 ft | 9 kts | 347° |
| 2026-04-30 20:41 | 45.32053 | -75.67304 | 368 ft | 0 kts | 20° |
| 2026-04-30 20:42 | 45.32071 | -75.67278 | 366 ft | 11 kts | 57° |
| 2026-04-30 20:42 | 45.32119 | -75.67178 | 370 ft | 11 kts | 59° |
| 2026-04-30 20:42 | 45.32096 | -75.67067 | 373 ft | 20 kts | 120° |
| 2026-04-30 20:43 | 45.32018 | -75.66910 | 375 ft | 20 kts | 127° |
| 2026-04-30 20:43 | 45.31935 | -75.66751 | 375 ft | 19 kts | 129° |
| 2026-04-30 20:43 | 45.31865 | -75.66617 | 375 ft | 15 kts | 125° |
| 2026-04-30 20:44 | 45.31852 | -75.66458 | 375 ft | 7 kts | 51° |
| 2026-04-30 20:44 | 45.31888 | -75.66390 | 375 ft | 10 kts | 56° |
| 2026-04-30 20:44 | 45.31955 | -75.66253 | 375 ft | 6 kts | 34° |
| 2026-04-30 20:45 | 45.32004 | -75.66246 | 375 ft | 6 kts | 332° |
| 2026-04-30 20:45 | 45.32026 | -75.66264 | 375 ft | 1 kts | 329° |
| 2026-04-30 20:45 | 45.32032 | -75.66268 | 375 ft | 1 kts | 329° |
| 2026-04-30 20:46 | 45.32049 | -75.66283 | 375 ft | 2 kts | 328° |
| 2026-04-30 20:46 | 45.32078 | -75.66310 | 375 ft | 6 kts | 327° |
| 2026-04-30 20:47 | 45.32107 | -75.66376 | 375 ft | 3 kts | 263° |
| 2026-04-30 20:47 | 45.32105 | -75.66393 | 375 ft | 3 kts | 261° |
| 2026-04-30 20:48 | 45.32102 | -75.66414 | 375 ft | 0 kts | 258° |